This is the latest recevied weather packets stored in our database for station/object JR5YHL-13. If no packets are shown the sender has not sent any weather packets the latest 10 day(s).
| Time | Temp. | Humidity | Pressure | Rain* | Wind** | Luminosity | Snow |
|---|---|---|---|---|---|---|---|
| 1778134336 | 28.33° C | 56% | 1010.8 hPa | 0 mm | - | - | - |
| 1778133739 | 27.22° C | 57% | 1011 hPa | 0 mm | - | - | - |
| 1778133141 | 26.67° C | 58% | 1011 hPa | 0 mm | - | - | - |
| 1778132543 | 27.22° C | 56% | 1011.2 hPa | 0 mm | - | - | - |
| 1778131945 | 28.33° C | 55% | 1011.2 hPa | 0 mm | - | - | - |
| 1778131348 | 27.22° C | 58% | 1011.2 hPa | 0 mm | - | - | - |
| 1778130750 | 27.78° C | 59% | 1011.3 hPa | 0 mm | - | - | - |
| 1778130152 | 26.67° C | 60% | 1011.5 hPa | 0 mm | - | - | - |
| 1778129554 | 28.33° C | 57% | 1011.5 hPa | 0 mm | - | - | - |
| 1778128956 | 28.33° C | 57% | 1011.5 hPa | 0 mm | - | - | - |
| 1778128358 | 28.33° C | 53% | 1011.7 hPa | 0 mm | - | - | - |
| 1778127761 | 29.44° C | 49% | 1011.7 hPa | 0 mm | - | - | - |
| 1778127163 | 30° C | 47% | 1011.8 hPa | 0 mm | - | - | - |
| 1778126565 | 30° C | 47% | 1011.9 hPa | 0 mm | - | - | - |
| 1778125967 | 29.44° C | 47% | 1012.1 hPa | 0 mm | - | - | - |
| 1778125369 | 28.89° C | 48% | 1012.1 hPa | 0 mm | - | - | - |
| 1778124771 | 30° C | 45% | 1012.2 hPa | 0 mm | - | - | - |
| 1778124174 | 28.89° C | 48% | 1012.1 hPa | 0 mm | - | - | - |
| 1778123576 | 27.78° C | 49% | 1012.2 hPa | 0 mm | - | - | - |
| 1778122978 | 27.78° C | 48% | 1012.3 hPa | 0 mm | - | - | - |
| 1778122380 | 28.89° C | 45% | 1012.2 hPa | 0 mm | - | - | - |
| 1778121783 | 28.33° C | 47% | 1012.3 hPa | 0 mm | - | - | - |
| 1778121185 | 28.33° C | 46% | 1012.3 hPa | 0 mm | - | - | - |
| 1778120587 | 28.89° C | 45% | 1012.4 hPa | 0 mm | - | - | - |
| 1778119989 | 29.44° C | 47% | 1012.5 hPa | 0 mm | - | - | - |
* Rain latest hour (hover to see other rain measurements)
** Current wind speed in m/s (hover to see current wind gust speed)